createdAt,value
2022-09-11T00:02:07.623Z,84.53
2022-09-11T00:05:10.655Z,83.98
2022-09-11T00:08:16.815Z,83.18
2022-09-11T00:11:20.993Z,83.69
2022-09-11T00:14:22.590Z,84.20
2022-09-11T00:17:24.342Z,84.41
2022-09-11T00:20:25.968Z,83.47
2022-09-11T00:23:28.305Z,83.76
2022-09-11T00:26:30.107Z,83.93
2022-09-11T00:29:32.494Z,83.34
2022-09-11T00:32:34.326Z,83.46
2022-09-11T00:35:36.113Z,83.80
2022-09-11T00:38:38.944Z,83.67
2022-09-11T00:41:44.784Z,84.30
2022-09-11T00:44:49.522Z,83.50
2022-09-11T00:47:53.481Z,82.98
2022-09-11T00:50:59.182Z,83.30
2022-09-11T00:54:03.953Z,84.33
2022-09-11T00:57:08.192Z,83.48
2022-09-11T01:00:11.618Z,83.27
2022-09-11T01:03:13.716Z,82.86
2022-09-11T01:06:16.232Z,83.11
2022-09-11T01:09:17.972Z,83.42
2022-09-11T01:12:36.644Z,83.66
2022-09-11T01:15:49.957Z,83.20
2022-09-11T01:18:57.819Z,83.14
2022-09-11T01:22:33.480Z,83.10
2022-09-11T01:25:57.612Z,83.63
2022-09-11T01:29:29.034Z,84.18
2022-09-11T01:32:55.456Z,82.48
2022-09-11T01:36:19.564Z,82.40
2022-09-11T01:39:27.237Z,82.60
2022-09-11T01:42:33.195Z,82.91
2022-09-11T01:45:37.346Z,82.35
2022-09-11T01:48:48.720Z,81.87
2022-09-11T01:51:56.963Z,83.90
2022-09-11T01:55:04.977Z,84.53
2022-09-11T01:58:15.385Z,85.16
2022-09-11T02:01:28.777Z,85.92
2022-09-11T02:04:37.438Z,86.03
2022-09-11T02:07:48.658Z,86.40
2022-09-11T02:10:54.000Z,86.34
2022-09-11T02:14:04.369Z,87.98
2022-09-11T02:17:36.674Z,88.10
2022-09-11T02:20:39.398Z,88.80
2022-09-11T02:23:41.570Z,89.07
2022-09-11T02:26:47.892Z,89.70
2022-09-11T02:29:50.754Z,88.74
2022-09-11T02:32:56.088Z,88.46
2022-09-11T02:36:22.327Z,89.75
2022-09-11T02:40:02.665Z,88.21
2022-09-11T02:43:38.662Z,86.92
2022-09-11T02:46:52.707Z,87.34
2022-09-11T02:49:54.522Z,86.57
2022-09-11T02:53:09.876Z,85.88
2022-09-11T02:56:32.089Z,86.46
2022-09-11T02:59:41.027Z,86.02
2022-09-11T03:02:43.238Z,86.30
2022-09-11T03:05:45.551Z,85.23
2022-09-11T03:08:47.696Z,84.76
2022-09-11T03:11:50.190Z,85.46
2022-09-11T03:14:52.234Z,85.49
2022-09-11T03:17:56.646Z,84.85
2022-09-11T03:20:58.295Z,85.82
2022-09-11T03:24:01.221Z,85.21
2022-09-11T03:27:03.237Z,84.74
2022-09-11T03:30:06.957Z,85.32
2022-09-11T03:33:09.041Z,88.05
2022-09-11T03:36:12.104Z,86.57
2022-09-11T03:39:14.045Z,86.55
2022-09-11T03:42:16.146Z,87.30
2022-09-11T03:45:17.926Z,89.24
2022-09-11T03:48:19.841Z,88.57
2022-09-11T03:51:22.295Z,89.26
2022-09-11T03:54:24.009Z,89.52
2022-09-11T03:57:26.512Z,89.34
2022-09-11T04:00:29.703Z,89.61
2022-09-11T04:03:32.227Z,87.87
2022-09-11T04:06:34.075Z,89.19
2022-09-11T04:09:37.963Z,92.81
2022-09-11T04:12:42.078Z,93.90
2022-09-11T04:15:43.917Z,94.00
2022-09-11T04:18:47.055Z,94.08
2022-09-11T04:21:49.825Z,93.85
2022-09-11T04:24:52.045Z,91.42
2022-09-11T04:27:54.240Z,92.40
2022-09-11T04:30:57.493Z,91.81
2022-09-11T04:33:59.697Z,91.19
2022-09-11T04:37:06.218Z,90.64
2022-09-11T04:40:10.118Z,91.16
2022-09-11T04:43:12.592Z,92.97
2022-09-11T04:46:16.535Z,95.56
2022-09-11T04:49:19.496Z,98.07
2022-09-11T04:52:22.351Z,99.57
2022-09-11T04:55:25.419Z,100.00
2022-09-11T04:58:27.273Z,100.00
2022-09-11T05:01:31.232Z,100.00
2022-09-11T05:04:33.923Z,100.00
2022-09-11T05:07:36.825Z,100.00
2022-09-11T05:10:39.863Z,100.00
2022-09-11T05:13:43.034Z,100.00
2022-09-11T05:16:45.573Z,100.00
2022-09-11T05:19:49.320Z,99.72
2022-09-11T05:22:51.538Z,100.00
2022-09-11T05:25:58.092Z,100.00
2022-09-11T05:29:03.620Z,100.00
2022-09-11T05:32:08.239Z,98.91
2022-09-11T05:35:09.954Z,98.47
2022-09-11T05:38:12.669Z,97.98
2022-09-11T05:41:15.674Z,97.52
2022-09-11T05:44:18.730Z,97.05
2022-09-11T05:47:21.048Z,97.48
2022-09-11T05:50:25.899Z,96.54
2022-09-11T05:53:32.206Z,96.54
2022-09-11T05:56:34.481Z,95.86
2022-09-11T05:59:40.130Z,96.06
2022-09-11T06:02:42.448Z,96.47
2022-09-11T06:05:44.163Z,95.98
2022-09-11T06:08:47.998Z,96.57
2022-09-11T06:11:49.722Z,96.62
2022-09-11T06:14:51.881Z,96.21
2022-09-11T06:17:53.846Z,95.18
2022-09-11T06:21:02.868Z,95.58
2022-09-11T06:24:10.724Z,96.18
2022-09-11T06:27:12.642Z,95.32
2022-09-11T06:30:18.560Z,95.94
2022-09-11T06:33:22.060Z,96.04
2022-09-11T06:36:27.657Z,95.19
2022-09-11T06:39:31.765Z,95.13
2022-09-11T06:42:33.982Z,95.78
2022-09-11T06:45:36.341Z,95.00
2022-09-11T06:48:44.845Z,95.77
2022-09-11T06:51:47.713Z,95.71
2022-09-11T06:54:50.602Z,95.27
2022-09-11T06:57:53.872Z,95.25
2022-09-11T07:01:11.416Z,96.16
2022-09-11T07:04:15.626Z,96.01
2022-09-11T07:07:18.692Z,95.68
2022-09-11T07:10:20.572Z,95.29
2022-09-11T07:13:27.517Z,94.67
2022-09-11T07:16:30.319Z,94.68
2022-09-11T07:19:33.775Z,94.90
2022-09-11T07:22:36.915Z,95.26
2022-09-11T07:25:38.748Z,95.33
2022-09-11T07:28:41.530Z,94.71
2022-09-11T07:31:43.224Z,93.82
2022-09-11T07:34:47.732Z,94.81
2022-09-11T07:37:50.942Z,93.68
2022-09-11T07:40:54.500Z,95.19
2022-09-11T07:44:03.444Z,95.50
2022-09-11T07:47:06.858Z,94.50
2022-09-11T07:50:14.032Z,95.27
2022-09-11T07:53:16.807Z,95.07
2022-09-11T07:56:23.225Z,95.36
2022-09-11T07:59:25.260Z,96.89
2022-09-11T08:02:28.193Z,97.25
2022-09-11T08:05:30.213Z,98.09
2022-09-11T08:08:33.568Z,96.23
2022-09-11T08:11:45.967Z,95.97
2022-09-11T08:14:48.161Z,93.85
2022-09-11T08:17:54.494Z,91.25
2022-09-11T08:21:12.583Z,90.70
2022-09-11T08:24:17.142Z,88.95
2022-09-11T08:27:20.005Z,88.71
2022-09-11T08:30:22.052Z,87.65
2022-09-11T08:33:23.960Z,89.40
2022-09-11T08:36:25.844Z,85.39
2022-09-11T08:39:28.050Z,83.64
2022-09-11T08:42:32.451Z,83.46
2022-09-11T08:45:35.941Z,84.26
2022-09-11T08:48:45.828Z,84.12
2022-09-11T08:51:50.020Z,82.98
2022-09-11T08:54:55.997Z,83.93
2022-09-11T08:58:12.993Z,82.69
2022-09-11T09:01:24.901Z,82.11
2022-09-11T09:04:46.941Z,82.49
2022-09-11T09:08:04.988Z,81.25
2022-09-11T09:11:17.254Z,80.54
2022-09-11T09:14:32.176Z,79.16
2022-09-11T09:17:34.136Z,79.04
2022-09-11T09:20:42.499Z,79.01
2022-09-11T09:23:56.260Z,78.21
2022-09-11T09:26:59.003Z,79.72
2022-09-11T09:30:05.890Z,78.86
2022-09-11T09:33:31.286Z,78.77
2022-09-11T09:36:56.219Z,80.01
2022-09-11T09:40:01.012Z,80.30
2022-09-11T09:43:15.504Z,80.00
2022-09-11T09:46:37.416Z,79.31
2022-09-11T09:49:39.576Z,76.21
2022-09-11T09:52:41.442Z,75.91
2022-09-11T09:55:44.694Z,74.53
2022-09-11T09:59:01.117Z,76.10
2022-09-11T10:02:03.084Z,73.96
2022-09-11T10:05:22.988Z,72.62
2022-09-11T10:08:33.841Z,72.67
2022-09-11T10:11:35.658Z,71.80
2022-09-11T10:14:52.278Z,71.52
2022-09-11T10:18:17.081Z,70.29
2022-09-11T10:21:29.713Z,72.18
2022-09-11T10:24:31.553Z,67.16
2022-09-11T10:27:39.157Z,69.21
2022-09-11T10:30:58.052Z,66.72
2022-09-11T10:34:01.107Z,68.49
2022-09-11T10:37:09.776Z,63.68
2022-09-11T10:40:22.828Z,67.46
2022-09-11T10:43:32.023Z,66.09
2022-09-11T10:46:41.102Z,63.71
2022-09-11T10:49:43.918Z,64.12
2022-09-11T10:52:57.716Z,61.49
2022-09-11T10:56:03.522Z,62.48
2022-09-11T10:59:07.236Z,64.31
2022-09-11T11:02:29.625Z,65.93
2022-09-11T11:05:56.214Z,66.35
2022-09-11T11:09:08.169Z,64.16
2022-09-11T11:12:32.707Z,66.61
2022-09-11T11:15:52.920Z,67.20
2022-09-11T11:19:03.972Z,66.36
2022-09-11T11:22:17.846Z,63.45
2022-09-11T11:25:34.353Z,64.33
2022-09-11T11:29:09.580Z,64.63
2022-09-11T11:32:39.598Z,63.32
2022-09-11T11:36:08.767Z,61.98
2022-09-11T11:39:30.120Z,61.27
2022-09-11T11:42:40.207Z,63.86
2022-09-11T11:45:49.997Z,59.44
2022-09-11T11:49:10.988Z,62.20
2022-09-11T11:52:36.918Z,60.05
2022-09-11T11:56:18.619Z,58.04
2022-09-11T11:59:41.572Z,58.15
2022-09-11T12:02:53.110Z,55.28
2022-09-11T12:05:54.768Z,53.97
2022-09-11T12:08:57.475Z,54.95
2022-09-11T12:12:06.256Z,55.52
2022-09-11T12:15:10.293Z,52.63
2022-09-11T12:18:12.011Z,53.19
2022-09-11T12:21:23.097Z,54.43
2022-09-11T12:25:10.909Z,54.42
2022-09-11T12:28:25.396Z,55.43
2022-09-11T12:31:50.909Z,54.74
2022-09-11T12:35:01.690Z,54.19
2022-09-11T12:38:06.296Z,53.97
2022-09-11T12:41:37.833Z,54.23
2022-09-11T12:44:45.633Z,52.57
2022-09-11T12:47:47.416Z,52.83
2022-09-11T12:50:54.649Z,53.52
2022-09-11T12:54:03.121Z,53.79
2022-09-11T12:57:29.504Z,55.53
2022-09-11T13:00:36.263Z,52.24
2022-09-11T13:03:46.573Z,52.25
2022-09-11T13:07:08.539Z,50.76
2022-09-11T13:10:35.339Z,50.86
2022-09-11T13:13:44.719Z,52.10
2022-09-11T13:17:40.473Z,49.71
2022-09-11T13:20:41.175Z,48.43
2022-09-11T13:23:51.351Z,47.26
2022-09-11T13:26:59.793Z,49.06
2022-09-11T13:30:01.924Z,47.70
2022-09-11T13:33:09.189Z,46.85
2022-09-11T13:36:13.090Z,49.33
2022-09-11T13:39:17.490Z,48.14
2022-09-11T13:42:23.417Z,45.60
2022-09-11T13:45:28.216Z,48.51
2022-09-11T13:48:29.892Z,45.61
2022-09-11T13:51:32.963Z,44.54
2022-09-11T13:54:43.605Z,45.50
2022-09-11T13:58:21.471Z,46.18
2022-09-11T14:01:23.700Z,43.58
2022-09-11T14:04:27.368Z,44.09
2022-09-11T14:07:29.143Z,44.08
2022-09-11T14:10:35.191Z,44.87
2022-09-11T14:13:49.434Z,43.57
2022-09-11T14:17:01.412Z,45.26
2022-09-11T14:20:03.644Z,45.90
2022-09-11T14:23:06.669Z,44.67
2022-09-11T14:26:18.437Z,43.11
2022-09-11T14:29:36.342Z,41.75
2022-09-11T14:32:39.203Z,42.35
2022-09-11T14:36:50.933Z,43.54
2022-09-11T14:39:56.750Z,42.82
2022-09-11T14:42:58.629Z,41.90
2022-09-11T14:46:02.112Z,41.24
2022-09-11T14:49:03.862Z,43.36
2022-09-11T14:52:06.728Z,44.27
2022-09-11T14:55:14.587Z,44.19
2022-09-11T14:58:16.421Z,42.83
2022-09-11T15:01:18.181Z,45.13
2022-09-11T15:04:23.029Z,46.30
2022-09-11T15:07:25.545Z,44.15
2022-09-11T15:10:27.531Z,42.84
2022-09-11T15:13:29.380Z,43.25
2022-09-11T15:16:31.506Z,43.92
2022-09-11T15:19:35.149Z,44.53
2022-09-11T15:22:38.333Z,43.38
2022-09-11T15:25:41.021Z,43.88
2022-09-11T15:28:42.792Z,43.52
2022-09-11T15:31:44.549Z,44.33
2022-09-11T15:34:47.673Z,44.45
2022-09-11T15:37:55.547Z,43.67
2022-09-11T15:40:57.169Z,42.86
2022-09-11T15:43:58.899Z,42.27
2022-09-11T15:47:00.636Z,43.05
2022-09-11T15:50:02.290Z,44.19
2022-09-11T15:53:03.957Z,44.11
2022-09-11T15:56:07.095Z,42.89
2022-09-11T15:59:11.585Z,44.10
2022-09-11T16:02:13.319Z,43.36
2022-09-11T16:05:15.405Z,44.01
2022-09-11T16:08:17.160Z,42.77
2022-09-11T16:11:21.274Z,46.05
2022-09-11T16:14:28.807Z,43.99
2022-09-11T16:17:32.495Z,44.17
2022-09-11T16:20:34.135Z,44.43
2022-09-11T16:23:36.990Z,43.72
2022-09-11T16:26:38.744Z,45.20
2022-09-11T16:33:02.437Z,47.00
2022-09-11T16:36:07.419Z,45.26
2022-09-11T16:39:12.761Z,45.96
2022-09-11T16:42:14.666Z,45.22
2022-09-11T16:45:16.381Z,44.25
2022-09-11T16:48:18.279Z,43.28
2022-09-11T16:51:20.652Z,44.98
2022-09-11T16:54:22.951Z,45.75
2022-09-11T16:57:27.300Z,46.45
2022-09-11T17:00:29.017Z,46.72
2022-09-11T17:03:30.729Z,47.01
2022-09-11T17:06:32.809Z,46.66
2022-09-11T17:09:34.462Z,48.26
2022-09-11T17:12:37.252Z,48.46
2022-09-11T17:15:40.668Z,51.80
2022-09-11T17:18:45.567Z,55.12
2022-09-11T17:21:47.346Z,57.10
2022-09-11T17:24:48.964Z,58.37
2022-09-11T17:27:50.799Z,58.85
2022-09-11T17:30:52.556Z,58.45
2022-09-11T17:33:54.235Z,60.02
2022-09-11T17:36:55.854Z,59.93
2022-09-11T17:39:58.564Z,59.79
2022-09-11T17:43:00.677Z,59.87
2022-09-11T17:46:05.117Z,60.32
2022-09-11T17:49:07.341Z,60.67
2022-09-11T17:52:09.748Z,61.82
2022-09-11T17:55:11.590Z,62.73
2022-09-11T17:58:13.238Z,62.78
2022-09-11T18:01:17.089Z,63.73
2022-09-11T18:04:18.958Z,63.66
2022-09-11T18:07:20.669Z,64.20
2022-09-11T18:10:22.633Z,64.36
2022-09-11T18:13:24.291Z,64.92
2022-09-11T18:16:26.180Z,64.54
2022-09-11T18:19:28.364Z,65.46
2022-09-11T18:22:33.455Z,65.41
2022-09-11T18:25:40.885Z,65.24
2022-09-11T18:32:10.893Z,67.36
2022-09-11T18:35:28.725Z,67.61
2022-09-11T18:38:38.374Z,66.64
2022-09-11T18:42:10.276Z,66.45
2022-09-11T18:45:53.064Z,66.19
2022-09-11T18:49:07.965Z,66.76
2022-09-11T18:52:22.661Z,67.00
2022-09-11T18:55:30.093Z,67.00
2022-09-11T18:58:33.886Z,66.52
2022-09-11T19:01:41.861Z,67.29
2022-09-11T19:04:48.142Z,67.49
2022-09-11T19:08:00.130Z,67.78
2022-09-11T19:11:20.421Z,67.62
2022-09-11T19:14:43.992Z,68.13
2022-09-11T19:18:01.706Z,67.63
2022-09-11T19:21:26.937Z,68.03
2022-09-11T19:24:30.298Z,68.12
2022-09-11T19:27:47.258Z,69.00
2022-09-11T19:30:58.388Z,70.37
2022-09-11T19:34:03.979Z,70.61
2022-09-11T19:37:05.960Z,71.41
2022-09-11T19:40:07.997Z,72.12
2022-09-11T19:43:11.854Z,73.24
2022-09-11T19:46:22.009Z,74.65
2022-09-11T19:49:24.096Z,75.17
2022-09-11T19:52:29.720Z,76.19
2022-09-11T19:55:35.313Z,76.78
2022-09-11T19:58:38.914Z,76.67
2022-09-11T20:01:40.894Z,75.66
2022-09-11T20:04:42.711Z,76.29
2022-09-11T20:07:44.457Z,77.72
2022-09-11T20:10:47.279Z,75.28
2022-09-11T20:13:49.514Z,74.69
2022-09-11T20:16:51.294Z,73.34
2022-09-11T20:19:53.230Z,73.71
2022-09-11T20:23:00.549Z,74.93
2022-09-11T20:26:16.935Z,77.13
2022-09-11T20:29:19.212Z,77.69
2022-09-11T20:32:21.095Z,78.04
2022-09-11T20:35:23.284Z,77.73
2022-09-11T20:38:25.193Z,77.98
2022-09-11T20:41:30.167Z,77.28
2022-09-11T20:44:36.743Z,77.33
2022-09-11T20:47:39.645Z,77.57
2022-09-11T20:50:41.588Z,77.43
2022-09-11T20:53:45.824Z,77.24
2022-09-11T20:56:47.541Z,76.63
2022-09-11T20:59:50.005Z,77.47
2022-09-11T21:02:52.439Z,78.75
2022-09-11T21:05:56.084Z,78.83
2022-09-11T21:09:00.993Z,78.72
2022-09-11T21:12:03.163Z,79.09
2022-09-11T21:15:07.702Z,78.56
2022-09-11T21:18:09.984Z,77.91
2022-09-11T21:21:11.757Z,77.19
2022-09-11T21:24:14.146Z,77.39
2022-09-11T21:27:15.825Z,77.53
2022-09-11T21:30:17.679Z,76.75
2022-09-11T21:33:19.718Z,76.08
2022-09-11T21:36:21.567Z,76.40
2022-09-11T21:39:23.354Z,77.12
2022-09-11T21:42:25.248Z,77.85
2022-09-11T21:45:27.172Z,78.39
2022-09-11T21:48:33.603Z,77.79
2022-09-11T21:51:37.307Z,78.73
2022-09-11T21:54:39.357Z,78.01
2022-09-11T21:57:41.172Z,78.88
2022-09-11T22:00:43.466Z,79.24
2022-09-11T22:03:46.124Z,78.45
2022-09-11T22:06:48.037Z,79.10
2022-09-11T22:09:49.736Z,80.07
2022-09-11T22:12:51.735Z,80.00
2022-09-11T22:15:53.590Z,79.82
2022-09-11T22:18:55.458Z,80.73
2022-09-11T22:21:57.304Z,80.92
2022-09-11T22:24:59.261Z,80.12
2022-09-11T22:28:01.032Z,79.70
2022-09-11T22:31:11.128Z,79.66
2022-09-11T22:34:14.441Z,80.23
2022-09-11T22:37:16.897Z,79.85
2022-09-11T22:40:19.191Z,80.29
2022-09-11T22:43:20.984Z,80.80
2022-09-11T22:46:24.049Z,81.18
2022-09-11T22:49:25.816Z,80.94
2022-09-11T22:52:28.035Z,80.74
2022-09-11T22:55:30.030Z,80.52
2022-09-11T22:58:32.617Z,80.75
2022-09-11T23:01:35.018Z,81.09
2022-09-11T23:04:36.701Z,81.21
2022-09-11T23:07:38.869Z,81.49
2022-09-11T23:10:42.342Z,82.12
2022-09-11T23:13:44.639Z,82.84
2022-09-11T23:16:46.500Z,82.85
2022-09-11T23:19:48.827Z,82.83
2022-09-11T23:22:50.840Z,83.12
2022-09-11T23:25:52.689Z,83.35
2022-09-11T23:28:56.011Z,83.55
2022-09-11T23:31:57.810Z,83.43
2022-09-11T23:34:59.644Z,83.54
2022-09-11T23:38:01.380Z,83.90
2022-09-11T23:41:03.810Z,84.38
2022-09-11T23:44:06.056Z,84.76
2022-09-11T23:47:08.124Z,85.56
2022-09-11T23:50:10.193Z,85.75
2022-09-11T23:53:11.983Z,85.88
2022-09-11T23:56:15.070Z,85.61
2022-09-11T23:59:17.312Z,85.43
